Time;durP1;ratioP1;P1;durP2;ratioP2;P2;SDS_P1;SDS_P2;PMS_P1;PMS_P2;Temp;Humidity;BMP_temperature;BMP_pressure;BME280_temperature;BME280_humidity;BME280_pressure;Samples;Min_cycle;Max_cycle;Signal;HPM_P1;HPM_P2
2023/05/01 00:01:04;;;;;;;8.43;4.70;;;;;;;13.94;50.84;99400.25;4486243;31;33573;-87
2023/05/01 00:03:32;;;;;;;6.68;4.40;;;;;;;13.79;50.42;99400.22;4490830;31;33936;-87
2023/05/01 00:06:01;;;;;;;7.68;4.72;;;;;;;14.16;50.83;99392.47;4483502;31;35036;-88
2023/05/01 00:08:29;;;;;;;7.90;4.45;;;;;;;14.30;51.06;99401.19;4497665;31;34695;-86
2023/05/01 00:11:02;;;;;;;6.65;4.53;;;;;;;14.43;50.72;99394.25;4489861;31;33902;-88
2023/05/01 00:13:30;;;;;;;11.32;5.10;;;;;;;14.32;50.95;99391.66;4485376;31;33949;-89
2023/05/01 00:15:57;;;;;;;7.50;4.40;;;;;;;14.14;51.22;99396.81;4469696;31;34294;-87
2023/05/01 00:18:25;;;;;;;9.27;5.03;;;;;;;14.11;51.40;99392.47;4497213;31;33507;-88
2023/05/01 00:20:52;;;;;;;7.47;4.28;;;;;;;14.14;50.82;99391.63;4483293;31;33455;-87
2023/05/01 00:23:20;;;;;;;9.90;4.37;;;;;;;14.18;51.35;99391.63;4497113;31;33814;-88
2023/05/01 00:25:48;;;;;;;8.93;4.40;;;;;;;14.13;51.56;99390.75;4498286;31;34257;-87
2023/05/01 00:28:17;;;;;;;7.47;4.68;;;;;;;14.10;51.39;99391.59;4499508;31;33450;-87
2023/05/01 00:30:45;;;;;;;7.00;4.40;;;;;;;14.06;51.48;99386.38;4484489;31;33415;-87
2023/05/01 00:33:14;;;;;;;7.78;4.72;;;;;;;14.12;51.46;99386.38;4499682;31;33694;-87
2023/05/01 00:35:45;;;;;;;8.40;4.78;;;;;;;14.27;50.98;99393.34;4496321;31;34034;-88
2023/05/01 00:38:13;;;;;;;9.40;4.32;;;;;;;14.28;50.77;99390.78;4499040;31;33478;-87
2023/05/01 00:40:44;;;;;;;7.43;4.55;;;;;;;14.05;51.62;99385.50;4498475;31;33894;-87
2023/05/01 00:43:11;;;;;;;8.57;4.57;;;;;;;13.97;51.65;99389.81;4492402;31;33950;-88
2023/05/01 00:45:42;;;;;;;7.53;4.40;;;;;;;14.06;51.61;99389.84;4498924;31;34977;-88
2023/05/01 00:48:10;;;;;;;7.78;4.40;;;;;;;13.91;51.85;99387.22;4499513;31;33816;-90
2023/05/01 00:50:38;;;;;;;6.90;4.60;;;;;;;13.93;51.72;99388.06;4497435;31;33079;-90
2023/05/01 00:53:06;;;;;;;9.00;4.82;;;;;;;13.86;51.76;99386.31;4498533;31;34037;-91
2023/05/01 00:55:34;;;;;;;7.32;4.10;;;;;;;13.76;51.88;99390.63;4497175;31;34077;-90
2023/05/01 00:58:02;;;;;;;8.52;4.68;;;;;;;13.68;52.18;99392.34;4485296;31;33641;-88
2023/05/01 01:00:30;;;;;;;10.48;4.65;;;;;;;13.82;51.77;99393.25;4482685;31;33452;-87
2023/05/01 01:02:58;;;;;;;6.20;4.20;;;;;;;13.52;52.23;99395.72;4498004;31;33702;-90
2023/05/01 01:05:27;;;;;;;7.20;4.62;;;;;;;13.59;52.07;99387.09;4499390;31;34936;-88
2023/05/01 01:08:01;;;;;;;8.20;4.97;;;;;;;13.57;52.01;99389.69;4483982;31;35022;-88
2023/05/01 01:10:29;;;;;;;7.28;4.75;;;;;;;13.17;53.22;99399.00;4494973;31;33064;-87
2023/05/01 01:13:00;;;;;;;7.65;4.55;;;;;;;13.31;52.63;99397.38;4496422;31;32604;-88
2023/05/01 01:15:43;;;;;;;7.85;4.35;;;;;;;13.24;53.08;99398.19;4484533;31;33467;-88
2023/05/01 01:18:16;;;;;;;7.93;4.82;;;;;;;13.27;52.73;99392.16;4484686;31;33727;-90
2023/05/01 01:21:06;;;;;;;7.03;4.10;;;;;;;13.15;53.33;99385.97;4495203;31;34163;-88
2023/05/01 01:23:52;;;;;;;10.07;5.15;;;;;;;13.26;53.21;99393.00;4483599;31;33932;-89
2023/05/01 01:26:49;;;;;;;10.95;5.10;;;;;;;13.25;53.15;99392.13;4483635;31;33945;-88
2023/05/01 01:29:40;;;;;;;8.95;5.07;;;;;;;12.91;53.28;99381.47;4480169;31;33826;-90
2023/05/01 01:32:10;;;;;;;9.77;5.32;;;;;;;12.99;53.37;99384.13;4474009;31;32963;-87
2023/05/01 01:34:47;;;;;;;8.60;5.55;;;;;;;12.93;51.43;99378.91;4483368;31;34035;-88
2023/05/01 01:37:27;;;;;;;12.18;5.20;;;;;;;12.35;51.96;99384.53;4483526;31;34170;-88
2023/05/01 01:40:15;;;;;;;10.55;4.75;;;;;;;12.46;51.91;99382.00;4496567;31;33611;-88
2023/05/01 01:42:45;;;;;;;6.78;4.87;;;;;;;12.34;51.99;99381.88;4482336;31;34671;-88
2023/05/01 01:45:22;;;;;;;8.68;4.57;;;;;;;12.44;51.84;99382.84;4470514;31;33818;-88
2023/05/01 01:47:50;;;;;;;;;;;;;;;12.26;52.33;99379.22;4496402;31;34022;-87
2023/05/01 01:50:37;;;;;;;9.38;4.30;;;;;;;12.63;51.31;99380.41;4483981;31;34861;-87
2023/05/01 01:53:06;;;;;;;8.82;4.68;;;;;;;12.80;51.10;99374.44;4493914;31;33396;-87
2023/05/01 01:55:35;;;;;;;9.40;4.72;;;;;;;12.82;51.48;99378.81;4483875;31;34644;-87
2023/05/01 01:58:03;;;;;;;8.80;4.80;;;;;;;12.70;51.64;99377.88;4483541;31;33905;-89
2023/05/01 02:00:33;;;;;;;8.30;4.80;;;;;;;13.05;50.86;99371.16;4483558;31;33518;-90
2023/05/01 02:03:01;;;;;;;9.95;4.65;;;;;;;13.09;50.65;99377.25;4484795;31;33473;-88
2023/05/01 02:05:30;;;;;;;10.07;4.90;;;;;;;13.36;50.09;99374.81;4482419;31;33389;-88
2023/05/01 02:07:58;;;;;;;8.25;4.37;;;;;;;13.36;50.03;99381.78;4482751;31;34144;-88
2023/05/01 02:10:26;;;;;;;7.68;4.75;;;;;;;13.41;50.20;99379.19;4484121;31;33819;-89
2023/05/01 02:12:55;;;;;;;7.45;5.07;;;;;;;13.27;50.84;99368.72;4484511;31;34436;-88
2023/05/01 02:15:24;;;;;;;9.60;4.93;;;;;;;13.52;50.27;99374.91;4484806;31;34041;-88
2023/05/01 02:17:52;;;;;;;7.85;5.30;;;;;;;13.55;50.42;99375.78;4477007;31;34900;-90
2023/05/01 02:20:21;;;;;;;9.15;5.07;;;;;;;13.67;50.67;99374.09;4496123;31;34559;-88
2023/05/01 02:22:52;;;;;;;9.07;5.07;;;;;;;13.77;50.30;99375.87;4497738;31;33368;-88
2023/05/01 02:25:20;;;;;;;10.15;5.65;;;;;;;13.45;50.86;99368.81;4483670;31;34709;-87
2023/05/01 02:27:52;;;;;;;9.18;5.25;;;;;;;13.68;50.46;99373.25;4482949;31;33686;-90
2023/05/01 02:30:20;;;;;;;9.35;5.00;;;;;;;13.13;51.58;99369.47;4482266;31;33841;-87
2023/05/01 02:32:47;;;;;;;9.00;5.40;;;;;;;13.33;51.11;99364.41;4498247;31;33235;-88
2023/05/01 02:35:16;;;;;;;9.15;5.57;;;;;;;13.17;51.28;99369.50;4483613;31;34316;-88
2023/05/01 02:37:44;;;;;;;9.82;5.57;;;;;;;13.38;50.79;99372.25;4497628;31;34873;-90
2023/05/01 02:40:15;;;;;;;10.77;5.12;;;;;;;13.28;51.07;99370.44;4496349;31;33030;-90
2023/05/01 02:42:44;;;;;;;7.40;5.37;;;;;;;13.45;50.74;99374.03;4473605;31;33413;-89
2023/05/01 02:45:19;;;;;;;8.43;4.90;;;;;;;13.35;50.80;99380.03;4497688;31;33802;-89
2023/05/01 02:47:50;;;;;;;7.15;4.55;;;;;;;13.17;50.53;99375.56;4483078;31;34108;-88
2023/05/01 02:50:18;;;;;;;8.73;4.97;;;;;;;13.32;50.95;99373.06;4495197;31;33906;-88
2023/05/01 02:52:46;;;;;;;9.27;4.78;;;;;;;13.35;50.44;99377.44;4482102;31;33043;-87
2023/05/01 02:55:15;;;;;;;8.52;5.00;;;;;;;12.93;51.63;99381.50;4496557;31;33527;-89
2023/05/01 02:57:42;;;;;;;9.38;5.40;;;;;;;13.03;51.04;99375.50;4484199;31;35022;-88
2023/05/01 03:00:12;;;;;;;10.32;5.30;;;;;;;13.07;50.91;99385.06;4496470;31;33073;-88
2023/05/01 03:02:41;;;;;;;9.43;4.55;;;;;;;13.09;51.19;99385.06;4497931;31;34349;-88
2023/05/01 03:05:08;;;;;;;9.68;4.97;;;;;;;13.28;50.63;99389.53;4496510;31;34637;-87
2023/05/01 03:07:36;;;;;;;7.75;5.18;;;;;;;13.43;50.78;99390.50;4495711;31;35038;-89
2023/05/01 03:10:05;;;;;;;9.65;5.00;;;;;;;13.70;50.50;99398.41;4496148;31;34017;-87
2023/05/01 03:12:32;;;;;;;11.10;5.47;;;;;;;13.82;50.50;99394.97;4497826;31;33151;-90
2023/05/01 03:15:00;;;;;;;8.52;4.87;;;;;;;13.61;50.12;99386.25;4497294;31;35072;-89
2023/05/01 03:17:28;;;;;;;9.13;4.70;;;;;;;13.71;49.65;99396.69;4497248;31;33815;-88
2023/05/01 03:19:55;;;;;;;9.35;5.18;;;;;;;13.51;49.91;99394.88;4497094;31;33982;-89
2023/05/01 03:22:23;;;;;;;7.87;5.28;;;;;;;13.48;50.09;99389.63;4496558;31;34253;-90
2023/05/01 03:24:51;;;;;;;7.80;4.60;;;;;;;13.53;49.30;99394.91;4497610;31;34895;-88
2023/05/01 03:27:18;;;;;;;7.68;4.30;;;;;;;13.50;49.30;99403.56;4497125;31;33430;-89
2023/05/01 03:29:46;;;;;;;9.30;5.00;;;;;;;13.31;49.58;99397.38;4496350;31;33087;-90
2023/05/01 03:32:15;;;;;;;10.57;5.25;;;;;;;13.45;49.50;99392.25;4495257;31;34208;-87
2023/05/01 03:34:44;;;;;;;12.32;5.00;;;;;;;13.85;48.87;99395.00;4496977;31;33812;-87
2023/05/01 03:37:11;;;;;;;11.07;5.57;;;;;;;13.63;49.15;99392.31;4497020;31;34855;-90
2023/05/01 03:39:40;;;;;;;10.40;5.07;;;;;;;13.23;49.78;99398.19;4494820;31;32513;-88
2023/05/01 03:42:09;;;;;;;7.55;4.68;;;;;;;13.40;49.65;99393.94;4496760;31;33162;-88
2023/05/01 03:44:37;;;;;;;6.93;4.62;;;;;;;13.18;49.62;99405.06;4497130;31;33887;-88
2023/05/01 03:47:05;;;;;;;10.43;6.05;;;;;;;13.22;49.92;99399.00;4496674;31;34139;-89
2023/05/01 03:49:34;;;;;;;8.43;4.80;;;;;;;13.25;49.91;99401.69;4496559;31;32058;-89
2023/05/01 03:52:01;;;;;;;9.20;5.12;;;;;;;13.15;50.06;99393.78;4481831;31;33428;-89
2023/05/01 03:54:29;;;;;;;8.38;5.28;;;;;;;13.38;49.58;99398.28;4496915;31;33931;-89
2023/05/01 03:56:57;;;;;;;8.98;5.32;;;;;;;13.22;50.14;99396.41;4496494;31;34155;-90
2023/05/01 03:59:25;;;;;;;8.80;4.93;;;;;;;13.09;50.43;99393.75;4497027;31;33581;-89
2023/05/01 04:01:52;;;;;;;11.85;5.30;;;;;;;12.83;51.16;99409.19;4497377;31;33261;-89
2023/05/01 04:04:20;;;;;;;7.72;4.82;;;;;;;13.06;50.98;99398.91;4498138;31;33508;-88
2023/05/01 04:06:49;;;;;;;11.70;5.70;;;;;;;13.06;51.13;99401.53;4497971;31;34641;-86
2023/05/01 04:09:16;;;;;;;10.27;5.20;;;;;;;12.84;52.00;99407.44;4480015;32;33606;-87
2023/05/01 04:11:46;;;;;;;10.63;5.90;;;;;;;12.79;52.04;99406.53;4492163;31;33278;-87
2023/05/01 04:14:13;;;;;;;8.73;5.03;;;;;;;12.99;51.33;99406.69;4484463;31;33568;-89
2023/05/01 04:16:40;;;;;;;12.85;5.37;;;;;;;13.00;51.44;99405.84;4484373;31;33919;-89
2023/05/01 04:19:09;;;;;;;8.35;5.22;;;;;;;13.25;51.23;99399.06;4498771;31;33844;-89
2023/05/01 04:21:38;;;;;;;9.68;5.85;;;;;;;13.41;50.71;99393.09;4498007;31;34152;-88
2023/05/01 04:24:06;;;;;;;9.93;5.62;;;;;;;13.84;49.55;99398.47;4498325;31;34020;-90
2023/05/01 04:26:33;;;;;;;10.05;5.10;;;;;;;13.90;48.92;99390.66;4498468;31;33908;-89
2023/05/01 04:29:01;;;;;;;11.23;5.25;;;;;;;14.14;48.20;99399.44;4484298;31;32644;-88
2023/05/01 04:31:28;;;;;;;10.07;4.68;;;;;;;14.82;46.55;99401.25;4498883;31;33528;-88
2023/05/01 04:33:57;;;;;;;8.45;4.60;;;;;;;14.48;45.86;99398.59;4497368;31;34652;-88
2023/05/01 04:36:24;;;;;;;8.65;4.18;;;;;;;14.38;45.56;99407.28;4497727;31;34978;-89
2023/05/01 04:38:52;;;;;;;9.38;4.68;;;;;;;14.48;45.19;99402.97;4497212;31;34083;-87
2023/05/01 04:41:20;;;;;;;7.45;4.05;;;;;;;14.56;44.19;99402.12;4498143;31;33812;-89
2023/05/01 04:43:48;;;;;;;9.77;4.30;;;;;;;15.00;43.51;99398.63;4498479;31;34480;-90
2023/05/01 04:46:16;;;;;;;6.53;3.92;;;;;;;14.95;43.45;99408.19;4498726;31;34159;-90
2023/05/01 04:48:44;;;;;;;9.05;3.83;;;;;;;15.37;42.14;99408.97;4496934;31;33711;-90
2023/05/01 04:51:11;;;;;;;6.78;4.00;;;;;;;15.81;42.19;99408.00;4484777;31;33346;-88
2023/05/01 04:53:40;;;;;;;8.38;3.85;;;;;;;15.79;41.15;99407.97;4497403;31;34028;-88
2023/05/01 04:56:10;;;;;;;10.75;4.25;;;;;;;15.66;40.95;99402.81;4498382;31;33580;-88
2023/05/01 04:58:38;;;;;;;9.55;4.22;;;;;;;15.54;40.96;99406.31;4499712;31;33579;-89
2023/05/01 05:01:06;;;;;;;9.30;4.30;;;;;;;15.81;41.38;99405.38;4495779;31;34436;-90
2023/05/01 05:03:34;;;;;;;8.75;4.15;;;;;;;15.35;40.82;99405.50;4491261;31;34738;-89
2023/05/01 05:06:02;;;;;;;7.03;4.10;;;;;;;15.57;41.20;99407.19;4498346;31;34965;-89
2023/05/01 05:08:30;;;;;;;10.45;4.47;;;;;;;16.00;40.20;99411.38;4497190;31;34053;-88
2023/05/01 05:10:58;;;;;;;12.00;4.37;;;;;;;15.75;40.72;99403.66;4496883;31;34149;-89
2023/05/01 05:13:26;;;;;;;11.02;4.30;;;;;;;15.58;40.71;99408.91;4499540;31;33680;-88
2023/05/01 05:15:54;;;;;;;7.32;3.83;;;;;;;15.52;40.54;99402.84;4496836;31;34245;-86
2023/05/01 05:18:22;;;;;;;7.62;4.32;;;;;;;15.57;39.96;99407.19;4498467;31;33952;-87
2023/05/01 05:20:50;;;;;;;7.93;4.55;;;;;;;15.48;40.70;99406.34;4497201;31;33340;-88
2023/05/01 05:23:17;;;;;;;10.25;3.97;;;;;;;15.38;41.94;99410.75;4498016;31;34064;-87
2023/05/01 05:25:45;;;;;;;5.22;3.28;;;;;;;15.77;39.91;99411.50;4498666;31;34078;-87
2023/05/01 05:28:13;;;;;;;10.77;4.47;;;;;;;15.95;40.35;99421.00;4497342;31;33982;-88
2023/05/01 05:30:40;;;;;;;8.93;4.43;;;;;;;15.45;41.03;99422.88;4495754;31;34258;-87
2023/05/01 05:33:08;;;;;;;6.97;4.18;;;;;;;15.29;41.18;99416.84;4496820;31;33937;-87
2023/05/01 05:35:36;;;;;;;6.72;3.80;;;;;;;15.73;41.72;99410.62;4483330;31;34109;-90
2023/05/01 05:38:03;;;;;;;7.85;4.25;;;;;;;15.98;41.41;99418.34;4496517;31;33090;-87
2023/05/01 05:40:32;;;;;;;8.63;4.53;;;;;;;16.06;41.41;99421.78;4485528;31;33313;-87
2023/05/01 05:42:59;;;;;;;7.35;4.20;;;;;;;16.43;40.32;99425.06;4468109;31;34076;-86
2023/05/01 05:45:28;;;;;;;8.27;4.40;;;;;;;15.90;41.46;99426.22;4497691;31;34137;-89
2023/05/01 05:47:56;;;;;;;7.82;4.50;;;;;;;15.71;40.63;99420.22;4499379;31;33829;-89
2023/05/01 05:50:24;;;;;;;7.40;4.28;;;;;;;15.43;41.39;99432.47;4496580;31;33251;-89
2023/05/01 05:52:52;;;;;;;7.43;3.83;;;;;;;15.53;42.35;99431.59;4481728;31;34057;-86
2023/05/01 05:55:19;;;;;;;6.43;3.80;;;;;;;15.27;40.42;99433.41;4490307;31;33665;-89
2023/05/01 05:57:49;;;;;;;9.75;3.70;;;;;;;15.13;42.41;99424.72;4492190;31;33944;-86
2023/05/01 06:00:17;;;;;;;8.00;4.78;;;;;;;15.39;42.08;99422.91;4491047;31;34025;-87
2023/05/01 06:02:47;;;;;;;5.97;3.87;;;;;;;15.40;43.04;99423.78;4498206;31;34614;-89
2023/05/01 06:05:15;;;;;;;7.40;4.15;;;;;;;15.53;40.34;99423.75;4497508;31;33830;-88
2023/05/01 06:07:42;;;;;;;7.75;3.40;;;;;;;15.64;39.72;99431.53;4497382;31;33535;-90
2023/05/01 06:10:10;;;;;;;7.82;3.53;;;;;;;15.33;39.98;99438.59;4494083;31;33099;-89
2023/05/01 06:12:38;;;;;;;9.38;3.92;;;;;;;15.08;41.43;99443.88;4488675;31;34050;-87
2023/05/01 06:15:23;;;;;;;10.88;3.78;;;;;;;14.89;40.10;99442.16;4488036;31;35484;-84
2023/05/01 06:17:51;;;;;;;7.90;4.12;;;;;;;14.57;40.59;99445.59;4496818;31;33804;-86
2023/05/01 06:20:21;;;;;;;11.95;3.10;;;;;;;15.05;39.93;99446.47;4495103;31;33537;-85
2023/05/01 06:22:48;;;;;;;7.95;3.08;;;;;;;14.94;37.34;99439.53;4483672;31;35144;-85
2023/05/01 06:25:16;;;;;;;9.05;3.12;;;;;;;14.63;38.26;99441.28;4476710;31;34045;-87
2023/05/01 06:27:44;;;;;;;6.35;2.78;;;;;;;14.85;38.17;99456.06;4480577;31;32912;-87
2023/05/01 06:30:12;;;;;;;8.23;2.83;;;;;;;15.06;37.94;99448.22;4497913;31;33524;-85
2023/05/01 06:32:42;;;;;;;6.47;2.65;;;;;;;14.83;36.26;99452.56;4496936;31;32609;-84
2023/05/01 06:35:10;;;;;;;6.28;2.53;;;;;;;15.00;36.49;99452.56;4498122;31;35331;-84
2023/05/01 06:37:37;;;;;;;6.37;2.97;;;;;;;14.86;36.26;99438.66;4497033;31;33458;-86
2023/05/01 06:40:07;;;;;;;9.13;2.62;;;;;;;15.37;35.62;99444.69;4495115;31;34166;-86
2023/05/01 06:42:35;;;;;;;7.37;2.55;;;;;;;15.18;35.83;99442.09;4481497;31;33766;-87
2023/05/01 06:45:04;;;;;;;8.15;2.50;;;;;;;15.42;34.99;99442.91;4485004;31;34094;-86
2023/05/01 06:47:31;;;;;;;8.73;2.65;;;;;;;15.54;34.50;99442.91;4491739;31;33876;-85
2023/05/01 06:50:00;;;;;;;5.78;2.17;;;;;;;15.62;34.56;99442.88;4492680;31;33375;-89
2023/05/01 06:52:32;;;;;;;5.45;2.33;;;;;;;15.64;34.59;99438.50;4481844;31;33495;-85
2023/05/01 06:55:00;;;;;;;6.35;2.67;;;;;;;15.41;34.20;99436.84;4481015;31;33926;-89
2023/05/01 06:57:27;;;;;;;6.40;2.37;;;;;;;15.55;34.56;99449.88;4482687;31;34692;-87
2023/05/01 06:59:55;;;;;;;5.65;2.30;;;;;;;15.68;33.85;99440.25;4496346;31;33723;-90
2023/05/01 07:02:23;;;;;;;6.78;2.65;;;;;;;15.84;34.00;99441.97;4494978;31;34419;-88
2023/05/01 07:04:51;;;;;;;5.55;2.53;;;;;;;16.04;34.14;99440.12;4497859;31;32714;-87
2023/05/01 07:07:19;;;;;;;6.40;2.72;;;;;;;16.71;35.09;99437.97;4492922;31;33975;-87
2023/05/01 07:09:47;;;;;;;7.22;2.45;;;;;;;17.05;33.26;99435.97;4493457;31;34311;-89
2023/05/01 07:12:14;;;;;;;5.53;2.17;;;;;;;17.11;33.61;99442.88;4493984;31;33636;-88
2023/05/01 07:14:42;;;;;;;7.53;1.98;;;;;;;17.30;33.17;99433.97;4480828;31;34285;-88
2023/05/01 07:17:09;;;;;;;5.10;2.17;;;;;;;16.99;31.54;99443.88;4496803;31;33386;-88
2023/05/01 07:19:37;;;;;;;6.78;2.17;;;;;;;16.89;32.52;99458.78;4496165;31;34295;-88
2023/05/01 07:22:05;;;;;;;6.35;2.58;;;;;;;17.06;32.39;99452.53;4495246;31;34039;-84
2023/05/01 07:24:32;;;;;;;9.38;2.30;;;;;;;17.00;31.07;99446.47;4497129;31;34262;-85
2023/05/01 07:27:00;;;;;;;5.35;2.15;;;;;;;17.32;32.11;99442.69;4495692;31;34763;-87
2023/05/01 07:29:27;;;;;;;7.45;2.20;;;;;;;16.69;31.78;99456.28;4494332;31;33432;-87
2023/05/01 07:31:55;;;;;;;7.50;2.30;;;;;;;16.93;32.17;99451.75;4493804;31;33437;-88
2023/05/01 07:34:22;;;;;;;6.05;2.20;;;;;;;17.48;31.59;99441.62;4496439;31;34081;-88
2023/05/01 07:36:50;;;;;;;8.15;2.05;;;;;;;17.41;31.23;99442.56;4480064;31;33592;-87
2023/05/01 07:39:18;;;;;;;5.65;2.05;;;;;;;17.27;32.02;99441.84;4497241;31;33324;-88
2023/05/01 07:41:46;;;;;;;8.10;2.47;;;;;;;17.28;31.23;99440.97;4478516;31;34654;-87
2023/05/01 07:44:13;;;;;;;4.93;1.90;;;;;;;17.03;31.27;99451.69;4496199;31;34810;-88
2023/05/01 07:46:41;;;;;;;6.95;2.97;;;;;;;17.25;30.95;99449.72;4481893;31;32953;-88
2023/05/01 07:49:09;;;;;;;6.43;2.53;;;;;;;17.34;30.82;99451.38;4482289;31;33465;-88
2023/05/01 07:51:36;;;;;;;10.07;2.55;;;;;;;17.31;32.33;99448.78;4495342;31;33759;-87
2023/05/01 07:54:04;;;;;;;6.93;2.30;;;;;;;17.43;31.05;99451.31;4493721;31;33733;-87
2023/05/01 07:56:32;;;;;;;8.07;2.53;;;;;;;17.89;30.89;99447.31;4495124;31;34037;-84
2023/05/01 07:58:59;;;;;;;6.00;2.30;;;;;;;17.70;30.33;99450.13;4489260;31;32843;-89
2023/05/01 08:01:27;;;;;;;5.82;1.90;;;;;;;17.48;31.23;99453.88;4494530;31;33908;-86
2023/05/01 08:03:54;;;;;;;5.78;2.00;;;;;;;17.48;30.90;99449.50;4496160;31;34109;-86
2023/05/01 08:06:22;;;;;;;5.93;2.00;;;;;;;17.13;31.30;99439.38;4495526;31;33657;-86
2023/05/01 08:08:50;;;;;;;9.30;2.00;;;;;;;17.79;32.28;99448.31;4495563;31;33529;-88
2023/05/01 08:11:17;;;;;;;6.93;2.20;;;;;;;17.58;30.67;99452.00;4494480;31;35303;-85
2023/05/01 08:13:45;;;;;;;6.43;1.95;;;;;;;18.03;31.79;99444.50;4494904;31;34230;-84
2023/05/01 08:16:12;;;;;;;5.60;2.00;;;;;;;18.34;30.28;99443.22;4496291;31;34364;-83
2023/05/01 08:18:40;;;;;;;3.75;1.50;;;;;;;18.31;30.33;99452.87;4497408;31;33241;-86
2023/05/01 08:21:07;;;;;;;4.60;2.00;;;;;;;17.66;30.89;99452.81;4493344;31;34648;-86
2023/05/01 08:23:35;;;;;;;7.55;2.17;;;;;;;18.04;31.59;99462.00;4482475;31;33755;-85
2023/05/01 08:26:02;;;;;;;9.20;2.33;;;;;;;18.22;31.50;99459.13;4469249;31;34443;-85
2023/05/01 08:28:33;;;;;;;6.20;2.15;;;;;;;18.44;31.17;99459.69;4494755;31;34101;-85
2023/05/01 08:31:01;;;;;;;5.05;1.62;;;;;;;18.68;30.62;99445.34;4494660;31;33601;-85
2023/05/01 08:33:28;;;;;;;6.32;1.95;;;;;;;18.62;29.97;99450.69;4476218;31;33788;-85
2023/05/01 08:35:57;;;;;;;7.62;1.90;;;;;;;18.36;30.14;99445.81;4495078;31;32219;-86
2023/05/01 08:38:24;;;;;;;7.32;1.90;;;;;;;18.42;30.71;99456.22;4478290;32;32825;-83
2023/05/01 08:40:52;;;;;;;7.37;2.12;;;;;;;18.53;31.64;99449.06;4491206;31;33823;-84
2023/05/01 08:43:20;;;;;;;5.30;2.12;;;;;;;19.31;30.22;99442.53;4494533;31;33759;-84
2023/05/01 08:45:48;;;;;;;6.00;1.67;;;;;;;19.38;31.13;99441.53;4481449;31;33619;-85
2023/05/01 08:48:19;;;;;;;4.57;1.80;;;;;;;19.06;29.57;99449.12;4496288;31;33311;-83
2023/05/01 08:50:47;;;;;;;7.93;2.35;;;;;;;19.24;30.58;99440.91;4483373;31;34561;-88
2023/05/01 08:53:16;;;;;;;6.35;2.00;;;;;;;19.34;30.31;99450.34;4484028;31;33741;-88
2023/05/01 08:55:47;;;;;;;6.95;2.33;;;;;;;19.48;29.50;99441.38;4483068;31;34730;-84
2023/05/01 08:58:16;;;;;;;5.25;2.37;;;;;;;19.41;29.75;99449.34;4494812;31;33156;-83
2023/05/01 09:00:45;;;;;;;6.62;1.95;;;;;;;19.37;30.01;99449.44;4497064;31;33956;-83
2023/05/01 09:03:13;;;;;;;5.65;1.77;;;;;;;19.47;29.99;99445.72;4482583;31;33493;-82
2023/05/01 09:05:40;;;;;;;4.07;1.52;;;;;;;19.53;28.43;99450.03;4468675;31;33710;-85
2023/05/01 09:08:08;;;;;;;5.78;2.72;;;;;;;19.44;29.37;99451.94;4499202;31;34214;-83
2023/05/01 09:10:41;;;;;;;3.35;1.58;;;;;;;19.13;28.85;99446.38;4498828;31;33988;-83
2023/05/01 09:13:09;;;;;;;5.90;1.80;;;;;;;19.40;29.05;99445.00;4486598;31;34596;-85
2023/05/01 09:15:37;;;;;;;5.87;2.08;;;;;;;19.52;29.90;99437.78;4480734;32;33533;-85
2023/05/01 09:18:04;;;;;;;6.03;1.40;;;;;;;19.26;28.99;99436.50;4481878;31;33339;-84
2023/05/01 09:20:36;;;;;;;5.82;2.08;;;;;;;18.90;29.24;99443.25;4483641;32;33902;-85
2023/05/01 09:23:03;;;;;;;4.53;1.83;;;;;;;19.11;29.34;99442.88;4489965;31;33787;-84
2023/05/01 09:25:31;;;;;;;7.22;2.47;;;;;;;19.29;29.19;99448.72;4498633;31;33677;-85
2023/05/01 09:27:58;;;;;;;7.37;2.28;;;;;;;19.61;29.38;99453.38;4498873;31;32973;-83
2023/05/01 09:30:33;;;;;;;5.68;1.95;;;;;;;18.91;29.37;99445.88;4498975;31;34757;-87
2023/05/01 09:33:11;;;;;;;4.70;1.95;;;;;;;19.02;29.73;99450.09;4472923;32;35512;-84
2023/05/01 09:35:57;;;;;;;5.47;1.73;;;;;;;19.41;28.71;99438.84;4482091;32;34524;-88
2023/05/01 09:38:26;;;;;;;7.62;2.22;;;;;;;19.49;29.50;99443.09;4482144;32;33843;-86
2023/05/01 09:40:56;;;;;;;5.68;1.83;;;;;;;19.68;28.30;99433.97;4471197;31;33189;-86
2023/05/01 09:43:25;;;;;;;6.60;1.90;;;;;;;19.76;28.96;99433.81;4471197;31;34977;-86
2023/05/01 09:46:03;;;;;;;5.03;1.95;;;;;;;20.29;29.70;99435.28;4484734;31;33924;-85
2023/05/01 09:48:31;;;;;;;;;;;;;;;20.24;28.95;99444.22;4498447;31;33687;-86
2023/05/01 09:51:21;;;;;;;6.68;3.33;;;;;;;19.83;28.74;99431.03;4472527;31;34184;-89
2023/05/01 09:53:49;;;;;;;7.68;2.08;;;;;;;19.80;28.73;99424.97;4499043;31;34713;-86
2023/05/01 09:56:17;;;;;;;4.47;1.60;;;;;;;20.14;29.00;99425.97;4498369;31;33935;-86
2023/05/01 09:58:45;;;;;;;6.35;1.80;;;;;;;20.18;29.00;99425.00;4484582;31;32566;-86
2023/05/01 10:01:13;;;;;;;8.48;2.05;;;;;;;19.86;29.94;99422.22;4493919;31;33107;-85
2023/05/01 10:03:43;;;;;;;7.80;2.08;;;;;;;20.31;29.08;99417.72;4494140;31;34100;-87
2023/05/01 10:06:11;;;;;;;5.20;1.80;;;;;;;20.41;28.74;99419.22;4489012;31;34751;-87
2023/05/01 10:08:46;;;;;;;4.37;1.50;;;;;;;20.51;27.96;99417.28;4483023;32;33292;-86
2023/05/01 10:11:14;;;;;;;;;;;;;;;21.05;29.16;99408.91;4483552;31;33599;-84
2023/05/01 10:13:41;;;;;;;9.15;3.87;;;;;;;21.22;27.41;99395.28;4483227;31;33594;-85
2023/05/01 10:16:28;;;;;;;4.97;1.80;;;;;;;21.26;26.64;99396.94;4493924;31;33635;-85
2023/05/01 10:18:57;;;;;;;8.23;1.98;;;;;;;21.49;27.11;99395.47;4457128;31;33513;-87
2023/05/01 10:21:24;;;;;;;6.65;1.70;;;;;;;21.47;27.32;99399.91;4479383;31;33943;-87
2023/05/01 10:23:53;;;;;;;7.65;1.90;;;;;;;21.67;27.74;99389.66;4497760;31;35046;-84
2023/05/01 10:26:21;;;;;;;5.82;1.90;;;;;;;21.25;26.62;99395.22;4497278;31;33934;-85
2023/05/01 10:28:49;;;;;;;4.90;1.95;;;;;;;21.11;27.65;99389.44;4483352;31;34123;-87
2023/05/01 10:31:16;;;;;;;6.20;1.87;;;;;;;21.00;26.68;99388.84;4492642;31;34573;-84
2023/05/01 10:33:45;;;;;;;5.65;1.92;;;;;;;20.93;26.93;99382.00;4493291;31;33474;-85
2023/05/01 10:36:45;;;;;;;3.45;1.52;;;;;;;21.64;27.52;99392.41;4498493;31;33989;-84
2023/05/01 10:39:32;;;;;;;5.25;1.87;;;;;;;21.21;27.56;99390.91;4480619;31;32591;-83
2023/05/01 10:42:15;;;;;;;4.03;1.87;;;;;;;21.60;28.36;99386.34;4478234;31;34663;-85
2023/05/01 10:44:45;;;;;;;5.07;1.77;;;;;;;21.70;26.40;99384.28;4473772;31;34369;-84
2023/05/01 10:47:26;;;;;;;7.30;2.05;;;;;;;21.25;26.96;99371.47;4494071;31;33801;-84
2023/05/01 10:50:07;;;;;;;5.87;2.12;;;;;;;20.80;27.74;99379.69;4494290;31;34147;-83
2023/05/01 10:53:13;;;;;;;4.62;1.73;;;;;;;21.76;28.18;99385.88;4498126;31;34543;-84
2023/05/01 10:55:45;;;;;;;9.23;1.80;;;;;;;21.33;27.16;99376.56;4497220;31;33701;-85
2023/05/01 10:58:32;;;;;;;5.00;2.10;;;;;;;21.30;27.84;99368.72;4496508;31;34095;-86
2023/05/01 11:01:32;;;;;;;4.62;1.95;;;;;;;22.08;26.16;99377.00;4495614;31;33181;-85
2023/05/01 11:04:03;;;;;;;4.45;1.77;;;;;;;22.33;27.59;99366.56;4490477;31;33965;-85
2023/05/01 11:06:30;;;;;;;4.37;1.80;;;;;;;21.96;27.09;99375.59;4498588;31;34140;-84
2023/05/01 11:08:59;;;;;;;4.57;1.90;;;;;;;21.84;27.16;99378.59;4497988;31;33635;-85
2023/05/01 11:11:27;;;;;;;3.87;1.98;;;;;;;22.06;27.00;99376.19;4481223;31;33488;-85
2023/05/01 11:14:01;;;;;;;7.70;3.15;;;;;;;22.38;28.73;99369.06;4498283;31;33787;-87
2023/05/01 11:16:38;;;;;;;7.40;2.40;;;;;;;22.31;27.72;99361.34;4483881;31;35024;-84
2023/05/01 11:19:11;;;;;;;6.72;2.00;;;;;;;22.61;28.53;99363.03;4495473;31;33661;-84
2023/05/01 11:21:40;;;;;;;5.87;1.70;;;;;;;22.39;26.43;99365.50;4481930;31;34169;-87
2023/05/01 11:24:08;;;;;;;4.72;1.60;;;;;;;22.36;26.75;99358.56;4492981;31;33989;-85
2023/05/01 11:26:41;;;;;;;5.75;2.00;;;;;;;22.09;27.08;99352.34;4498316;31;33761;-85
2023/05/01 11:29:10;;;;;;;3.70;1.80;;;;;;;21.78;27.52;99345.37;4494374;31;33644;-86
2023/05/01 11:31:38;;;;;;;4.22;1.87;;;;;;;22.44;26.98;99348.59;4456969;31;32738;-87
2023/05/01 11:34:06;;;;;;;4.03;1.85;;;;;;;22.36;29.30;99341.84;4483997;31;34502;-87
2023/05/01 11:36:49;;;;;;;5.97;1.70;;;;;;;22.55;26.86;99332.41;4487330;31;33910;-84
2023/05/01 11:39:18;;;;;;;5.82;2.55;;;;;;;22.26;27.17;99339.47;4485894;31;33653;-88
2023/05/01 11:41:46;;;;;;;8.80;2.05;;;;;;;22.04;27.43;99348.97;4481588;31;34099;-85
2023/05/01 11:44:15;;;;;;;5.60;1.92;;;;;;;22.17;27.82;99345.06;4493078;31;33590;-84
2023/05/01 11:46:43;;;;;;;6.40;1.58;;;;;;;22.33;28.47;99348.94;4495602;31;34141;-83